Umar1 — 9HA2498 — position and weather

sailwx.info

Track history (hours):
 
Tides and Currents Weather Stations Pressure Air Temp Water Temp Dewpoint Dewpoint Depression Visibility Wind Speed Wind Dir Waves Ship Positions

Umar1

Last reported at 2016-Feb-06 15:33 UTC. Time now 2016-Feb-11 23:26 UTC.
Position N 49°26' W 000°25'.

Length 100 m; draft 6.4 m.

Type: Tanker. MMSI: 248751000.

Date/timePositionNaut miles runAvg speedWind from/ knotsBaromVisibWave heightAir tempDewpointWater temp
2016-Feb-06 15:33N 49°26' W 000°25'1111.1
2016-Feb-06 14:33N 49°25' W 000°09'1 1.3
2016-Feb-06 13:34N 49°26' W 000°08'2 1.7
2016-Feb-06 12:33N 49°28' W 000°07'3 2.9
2016-Feb-06 11:33N 49°30' W 000°05'0 0.0
2016-Feb-06 10:30N 49°30' W 000°05'0 0.0
2016-Feb-06 09:33N 49°30' W 000°05'0 0.0
2016-Feb-06 08:30N 49°30' W 000°05'0 0.0
2016-Feb-06 07:30N 49°30' W 000°05'0 0.0
2016-Feb-06 06:30N 49°30' W 000°05'0 0.0
2016-Feb-06 05:33N 49°30' W 000°05'0 0.0
2016-Feb-06 03:21N 49°30' W 000°05'0 0.0
2016-Feb-06 02:15N 49°30' W 000°05'0 0.0
2016-Feb-06 01:33N 49°30' W 000°05'0 0.0
2016-Feb-06 00:33N 49°30' W 000°05'0 0.1
2016-Feb-05 23:27N 49°30' W 000°05'0 0.0
2016-Feb-05 22:27N 49°30' W 000°05'0 0.0
2016-Feb-05 21:09N 49°30' W 000°05'0 0.0
2016-Feb-05 20:27N 49°30' W 000°05'0 0.0
2016-Feb-05 19:33N 49°30' W 000°05'0 0.0
2016-Feb-05 18:27N 49°30' W 000°05'0 0.0
2016-Feb-05 17:30N 49°30' W 000°05'3 2.7
2016-Feb-05 16:33N 49°30' W 000°08'106 9.7
2016-Feb-05 05:33N 51°00' E 001°20'1212.1
2016-Feb-05 04:33N 51°08' E 001°35'1212.3
2016-Feb-05 03:33N 51°17' E 001°49'1111.3
2016-Feb-05 02:34N 51°25' E 002°00'1111.1
2016-Feb-05 01:33N 51°20' E 002°16'1110.9
2016-Feb-05 00:33N 51°23' E 002°33'10 9.5
2016-Feb-04 23:33N 51°22' E 002°48'1010.3
2016-Feb-04 22:33N 51°24' E 003°04'11 9.8
2016-Feb-04 21:28N 51°25' E 003°21'8 9.3
2016-Feb-04 20:33N 51°25' E 003°35'9 9.1
2016-Feb-04 19:33N 51°21' E 003°48'2 1.8
2016-Feb-04 18:34N 51°20' E 003°49'3 2.8
2016-Feb-04 17:33N 51°17' E 003°50'5 4.9
2016-Feb-04 16:33N 51°12' E 003°48'5 5.2
2016-Feb-04 15:33N 51°07' E 003°46'3 2.3
2016-Feb-04 14:27N 51°05' E 003°44'0 0.0
2016-Feb-04 13:30N 51°05' E 003°44'0 0.0
2016-Feb-04 12:33N 51°05' E 003°44'0 0.0
2016-Feb-04 11:33N 51°05' E 003°44'0 0.0
2016-Feb-04 10:33N 51°05' E 003°44'0 0.0
2016-Feb-04 09:30N 51°05' E 003°44'0 0.0
2016-Feb-04 08:33N 51°05' E 003°44'0 0.0
2016-Feb-04 07:33N 51°05' E 003°44'0 0.0
2016-Feb-04 06:33N 51°05' E 003°44'0 0.0
2016-Feb-04 05:30N 51°05' E 003°44'0 0.0
2016-Feb-04 04:24N 51°05' E 003°44'0 0.0
2016-Feb-04 03:30N 51°05' E 003°44'0 0.0
2016-Feb-04 02:30N 51°05' E 003°44'0 0.0
2016-Feb-04 01:30N 51°05' E 003°44'0 0.0
2016-Feb-04 00:30N 51°05' E 003°44'0 0.0
2016-Feb-03 23:30N 51°05' E 003°44'0 0.0
2016-Feb-03 22:30N 51°05' E 003°44'0 0.0
2016-Feb-03 21:30N 51°05' E 003°44'0 0.1
2016-Feb-03 20:30N 51°05' E 003°44'0 0.0
2016-Feb-03 19:33N 51°05' E 003°44'0 0.0
2016-Feb-03 18:30N 51°05' E 003°44'0 0.0
2016-Feb-03 17:28N 51°05' E 003°44'0 0.0
2016-Feb-03 16:28N 51°05' E 003°44'0 0.0
2016-Feb-03 15:31N 51°05' E 003°44'0 0.0
2016-Feb-03 14:28N 51°05' E 003°44'0 0.0
2016-Feb-03 13:32N 51°05' E 003°44'0 0.0
2016-Feb-03 12:22N 51°05' E 003°44'0 0.0
2016-Feb-03 11:33N 51°05' E 003°44'0 0.0
2016-Feb-03 10:34N 51°05' E 003°44'0 0.0
2016-Feb-03 09:32N 51°05' E 003°44'3 2.9
2016-Feb-03 08:33N 51°08' E 003°46'2 1.6
2016-Feb-03 07:26N 51°09' E 003°47'0 0.0
2016-Feb-03 06:20N 51°09' E 003°47'0 0.0
2016-Feb-03 05:32N 51°09' E 003°47'0 0.0
2016-Feb-03 04:32N 51°09' E 003°47'0 0.0
2016-Feb-03 03:32N 51°09' E 003°47'0 0.0
2016-Feb-03 02:32N 51°09' E 003°47'0 0.0
2016-Feb-03 01:32N 51°09' E 003°47'0 0.0
2016-Feb-03 00:32N 51°09' E 003°47'0 0.0
2016-Feb-02 23:26N 51°09' E 003°47'0 0.0
2016-Feb-02 22:26N 51°09' E 003°47'0 0.0
2016-Feb-02 21:08N 51°09' E 003°47'0 0.0
2016-Feb-02 20:32N 51°09' E 003°47'0 0.0
2016-Feb-02 19:26N 51°09' E 003°47'0 0.0
2016-Feb-02 18:20N 51°09' E 003°47'0 0.0
2016-Feb-02 17:26N 51°09' E 003°47'0 0.0
2016-Feb-02 16:32N 51°09' E 003°47'0 0.0
2016-Feb-02 15:26N 51°09' E 003°47'0 0.0
2016-Feb-02 14:14N 51°09' E 003°47'0 0.0
2016-Feb-02 13:14N 51°09' E 003°47'0 0.0
2016-Feb-02 12:32N 51°09' E 003°47'0 0.0
2016-Feb-02 11:32N 51°09' E 003°47'0 0.0
2016-Feb-02 10:32N 51°09' E 003°47'0 0.0
2016-Feb-02 09:32N 51°09' E 003°47'0 0.0
2016-Feb-02 08:32N 51°09' E 003°47'0 0.0
2016-Feb-02 07:20N 51°09' E 003°47'0 0.0
2016-Feb-02 06:32N 51°09' E 003°47'0 0.0
2016-Feb-02 05:32N 51°09' E 003°47'0 0.0
2016-Feb-02 04:08N 51°09' E 003°47'0 0.0
2016-Feb-02 03:32N 51°09' E 003°47'0 0.0
2016-Feb-02 02:32N 51°09' E 003°47'0 0.0
2016-Feb-02 01:32N 51°09' E 003°47'0 0.0
2016-Feb-02 00:32N 51°09' E 003°47'0 0.0
2016-Feb-01 23:26N 51°09' E 003°47'0 0.0
2016-Feb-01 22:26N 51°09' E 003°47'0 0.0
2016-Feb-01 21:32N 51°09' E 003°47'0 0.0
2016-Feb-01 20:23N 51°09' E 003°47'0 0.0
2016-Feb-01 19:17N 51°09' E 003°47'0 0.0
2016-Feb-01 18:32N 51°09' E 003°47'0 0.0
2016-Feb-01 17:32N 51°09' E 003°47'0 0.0
2016-Feb-01 16:32N 51°09' E 003°47'0 0.0
2016-Feb-01 15:29N 51°09' E 003°47'0 0.0
2016-Feb-01 14:26N 51°09' E 003°47'0 0.0
2016-Feb-01 13:32N 51°09' E 003°47'0 0.0
2016-Feb-01 12:32N 51°09' E 003°47'0 0.0
2016-Feb-01 11:32N 51°09' E 003°47'0 0.0
2016-Feb-01 10:32N 51°09' E 003°47'0 0.0
2016-Feb-01 09:20N 51°09' E 003°47'0 0.0
2016-Feb-01 08:32N 51°09' E 003°47'0 0.0
2016-Feb-01 07:29N 51°09' E 003°47'0 0.0
2016-Feb-01 06:32N 51°09' E 003°47'0 0.0
2016-Feb-01 05:14N 51°09' E 003°47'0 0.0
2016-Feb-01 04:29N 51°09' E 003°47'0 0.0
2016-Feb-01 03:26N 51°09' E 003°47'0 0.0
2016-Feb-01 02:32N 51°09' E 003°47'0 0.0
2016-Feb-01 01:32N 51°09' E 003°47'0 0.0
2016-Feb-01 00:26N 51°09' E 003°47'0 0.0
2016-Jan-31 23:32N 51°09' E 003°47'0 0.0
2016-Jan-31 22:32N 51°09' E 003°47'0 0.0
2016-Jan-31 21:20N 51°09' E 003°47'0 0.0
2016-Jan-31 20:32N 51°09' E 003°47'0 0.0
2016-Jan-31 19:32N 51°09' E 003°47'0 0.0
2016-Jan-31 18:32N 51°09' E 003°47'0 0.0
2016-Jan-31 17:26N 51°09' E 003°47'0 0.0
2016-Jan-31 16:32N 51°09' E 003°47'0 0.0
2016-Jan-31 15:32N 51°09' E 003°47'0 0.0
2016-Jan-31 14:32N 51°09' E 003°47'0 0.0
2016-Jan-31 13:26N 51°09' E 003°47'0 0.0
2016-Jan-31 12:32N 51°09' E 003°47'0 0.0
2016-Jan-31 11:32N 51°09' E 003°47'0 0.0
2016-Jan-31 10:32N 51°09' E 003°47'0 0.4
2016-Jan-31 09:34N 51°10' E 003°47'7 7.2
2016-Jan-31 08:34N 51°16' E 003°50'4 3.9
2016-Jan-31 07:34N 51°20' E 003°49'8 7.5
2016-Jan-31 06:34N 51°25' E 003°40'1111.3
2016-Jan-31 05:34N 51°24' E 003°22'1312.5
2016-Jan-31 04:33N 51°24' E 003°01'11 9.5
2016-Jan-31 03:22N 51°22' E 002°44'5 5.6
2016-Jan-31 02:33N 51°22' E 002°36'10 9.8
2016-Jan-31 01:33N 51°19' E 002°21'9 9.3
2016-Jan-31 00:32N 51°15' E 002°08'9 8.9
2016-Jan-30 23:33N 51°11' E 001°56'8 8.2
2016-Jan-30 22:33N 51°06' E 001°45'9 8.5
2016-Jan-30 21:33N 50°60' E 001°36'  
2016-Jan-28 08:11N 50°59' E 001°18'711.0
2016-Jan-28 07:33N 51°03' E 001°26'10 9.7
2016-Jan-28 06:33N 51°10' E 001°38'8 8.5
2016-Jan-28 05:33N 51°16' E 001°47'8 7.8
2016-Jan-28 04:33N 51°23' E 001°53'7 6.8
2016-Jan-28 03:30N 51°29' E 001°60'7 7.2
2016-Jan-28 02:29N 51°34' E 002°08'  
Track history (hours):
 
Tides and Currents Weather Stations Pressure Air Temp Water Temp Dewpoint Dewpoint Depression Visibility Wind Speed Wind Dir Waves Ship Positions

Umar1

Last reported at 2016-Feb-06 15:33 UTC. Time now 2016-Feb-11 23:26 UTC.
Position N 49°26' W 000°25'.

Length 100 m; draft 6.4 m.

Type: Tanker. MMSI: 248751000.

Date/timePositionNaut miles runAvg speedWind from/ knotsBaromVisibWave heightAir tempDewpointWater temp
2016-Feb-06 15:33N 49°26' W 000°25'1111.1
2016-Feb-06 14:33N 49°25' W 000°09'1 1.3
2016-Feb-06 13:34N 49°26' W 000°08'2 1.7
2016-Feb-06 12:33N 49°28' W 000°07'3 2.9
2016-Feb-06 11:33N 49°30' W 000°05'0 0.0
2016-Feb-06 10:30N 49°30' W 000°05'0 0.0
2016-Feb-06 09:33N 49°30' W 000°05'0 0.0
2016-Feb-06 08:30N 49°30' W 000°05'0 0.0
2016-Feb-06 07:30N 49°30' W 000°05'0 0.0
2016-Feb-06 06:30N 49°30' W 000°05'0 0.0
2016-Feb-06 05:33N 49°30' W 000°05'0 0.0
2016-Feb-06 03:21N 49°30' W 000°05'0 0.0
2016-Feb-06 02:15N 49°30' W 000°05'0 0.0
2016-Feb-06 01:33N 49°30' W 000°05'0 0.0
2016-Feb-06 00:33N 49°30' W 000°05'0 0.1
2016-Feb-05 23:27N 49°30' W 000°05'0 0.0
2016-Feb-05 22:27N 49°30' W 000°05'0 0.0
2016-Feb-05 21:09N 49°30' W 000°05'0 0.0
2016-Feb-05 20:27N 49°30' W 000°05'0 0.0
2016-Feb-05 19:33N 49°30' W 000°05'0 0.0
2016-Feb-05 18:27N 49°30' W 000°05'0 0.0
2016-Feb-05 17:30N 49°30' W 000°05'3 2.7
2016-Feb-05 16:33N 49°30' W 000°08'106 9.7
2016-Feb-05 05:33N 51°00' E 001°20'1212.1
2016-Feb-05 04:33N 51°08' E 001°35'1212.3
2016-Feb-05 03:33N 51°17' E 001°49'1111.3
2016-Feb-05 02:34N 51°25' E 002°00'1111.1
2016-Feb-05 01:33N 51°20' E 002°16'1110.9
2016-Feb-05 00:33N 51°23' E 002°33'10 9.5
2016-Feb-04 23:33N 51°22' E 002°48'1010.3
2016-Feb-04 22:33N 51°24' E 003°04'11 9.8
2016-Feb-04 21:28N 51°25' E 003°21'8 9.3
2016-Feb-04 20:33N 51°25' E 003°35'9 9.1
2016-Feb-04 19:33N 51°21' E 003°48'2 1.8
2016-Feb-04 18:34N 51°20' E 003°49'3 2.8
2016-Feb-04 17:33N 51°17' E 003°50'5 4.9
2016-Feb-04 16:33N 51°12' E 003°48'5 5.2
2016-Feb-04 15:33N 51°07' E 003°46'3 2.3
2016-Feb-04 14:27N 51°05' E 003°44'0 0.0
2016-Feb-04 13:30N 51°05' E 003°44'0 0.0
2016-Feb-04 12:33N 51°05' E 003°44'0 0.0
2016-Feb-04 11:33N 51°05' E 003°44'0 0.0
2016-Feb-04 10:33N 51°05' E 003°44'0 0.0
2016-Feb-04 09:30N 51°05' E 003°44'0 0.0
2016-Feb-04 08:33N 51°05' E 003°44'0 0.0
2016-Feb-04 07:33N 51°05' E 003°44'0 0.0
2016-Feb-04 06:33N 51°05' E 003°44'0 0.0
2016-Feb-04 05:30N 51°05' E 003°44'0 0.0
2016-Feb-04 04:24N 51°05' E 003°44'0 0.0
2016-Feb-04 03:30N 51°05' E 003°44'0 0.0
2016-Feb-04 02:30N 51°05' E 003°44'0 0.0
2016-Feb-04 01:30N 51°05' E 003°44'0 0.0
2016-Feb-04 00:30N 51°05' E 003°44'0 0.0
2016-Feb-03 23:30N 51°05' E 003°44'0 0.0
2016-Feb-03 22:30N 51°05' E 003°44'0 0.0
2016-Feb-03 21:30N 51°05' E 003°44'0 0.1
2016-Feb-03 20:30N 51°05' E 003°44'0 0.0
2016-Feb-03 19:33N 51°05' E 003°44'0 0.0
2016-Feb-03 18:30N 51°05' E 003°44'0 0.0
2016-Feb-03 17:28N 51°05' E 003°44'0 0.0
2016-Feb-03 16:28N 51°05' E 003°44'0 0.0
2016-Feb-03 15:31N 51°05' E 003°44'0 0.0
2016-Feb-03 14:28N 51°05' E 003°44'0 0.0
2016-Feb-03 13:32N 51°05' E 003°44'0 0.0
2016-Feb-03 12:22N 51°05' E 003°44'0 0.0
2016-Feb-03 11:33N 51°05' E 003°44'0 0.0
2016-Feb-03 10:34N 51°05' E 003°44'0 0.0
2016-Feb-03 09:32N 51°05' E 003°44'3 2.9
2016-Feb-03 08:33N 51°08' E 003°46'2 1.6
2016-Feb-03 07:26N 51°09' E 003°47'0 0.0
2016-Feb-03 06:20N 51°09' E 003°47'0 0.0
2016-Feb-03 05:32N 51°09' E 003°47'0 0.0
2016-Feb-03 04:32N 51°09' E 003°47'0 0.0
2016-Feb-03 03:32N 51°09' E 003°47'0 0.0
2016-Feb-03 02:32N 51°09' E 003°47'0 0.0
2016-Feb-03 01:32N 51°09' E 003°47'0 0.0
2016-Feb-03 00:32N 51°09' E 003°47'0 0.0
2016-Feb-02 23:26N 51°09' E 003°47'0 0.0
2016-Feb-02 22:26N 51°09' E 003°47'0 0.0
2016-Feb-02 21:08N 51°09' E 003°47'0 0.0
2016-Feb-02 20:32N 51°09' E 003°47'0 0.0
2016-Feb-02 19:26N 51°09' E 003°47'0 0.0
2016-Feb-02 18:20N 51°09' E 003°47'0 0.0
2016-Feb-02 17:26N 51°09' E 003°47'0 0.0
2016-Feb-02 16:32N 51°09' E 003°47'0 0.0
2016-Feb-02 15:26N 51°09' E 003°47'0 0.0
2016-Feb-02 14:14N 51°09' E 003°47'0 0.0
2016-Feb-02 13:14N 51°09' E 003°47'0 0.0
2016-Feb-02 12:32N 51°09' E 003°47'0 0.0
2016-Feb-02 11:32N 51°09' E 003°47'0 0.0
2016-Feb-02 10:32N 51°09' E 003°47'0 0.0
2016-Feb-02 09:32N 51°09' E 003°47'0 0.0
2016-Feb-02 08:32N 51°09' E 003°47'0 0.0
2016-Feb-02 07:20N 51°09' E 003°47'0 0.0
2016-Feb-02 06:32N 51°09' E 003°47'0 0.0
2016-Feb-02 05:32N 51°09' E 003°47'0 0.0
2016-Feb-02 04:08N 51°09' E 003°47'0 0.0
2016-Feb-02 03:32N 51°09' E 003°47'0 0.0
2016-Feb-02 02:32N 51°09' E 003°47'0 0.0
2016-Feb-02 01:32N 51°09' E 003°47'0 0.0
2016-Feb-02 00:32N 51°09' E 003°47'0 0.0
2016-Feb-01 23:26N 51°09' E 003°47'0 0.0
2016-Feb-01 22:26N 51°09' E 003°47'0 0.0
2016-Feb-01 21:32N 51°09' E 003°47'0 0.0
2016-Feb-01 20:23N 51°09' E 003°47'0 0.0
2016-Feb-01 19:17N 51°09' E 003°47'0 0.0
2016-Feb-01 18:32N 51°09' E 003°47'0 0.0
2016-Feb-01 17:32N 51°09' E 003°47'0 0.0
2016-Feb-01 16:32N 51°09' E 003°47'0 0.0
2016-Feb-01 15:29N 51°09' E 003°47'0 0.0
2016-Feb-01 14:26N 51°09' E 003°47'0 0.0
2016-Feb-01 13:32N 51°09' E 003°47'0 0.0
2016-Feb-01 12:32N 51°09' E 003°47'0 0.0
2016-Feb-01 11:32N 51°09' E 003°47'0 0.0
2016-Feb-01 10:32N 51°09' E 003°47'0 0.0
2016-Feb-01 09:20N 51°09' E 003°47'0 0.0
2016-Feb-01 08:32N 51°09' E 003°47'0 0.0
2016-Feb-01 07:29N 51°09' E 003°47'0 0.0
2016-Feb-01 06:32N 51°09' E 003°47'0 0.0
2016-Feb-01 05:14N 51°09' E 003°47'0 0.0
2016-Feb-01 04:29N 51°09' E 003°47'0 0.0
2016-Feb-01 03:26N 51°09' E 003°47'0 0.0
2016-Feb-01 02:32N 51°09' E 003°47'0 0.0
2016-Feb-01 01:32N 51°09' E 003°47'0 0.0
2016-Feb-01 00:26N 51°09' E 003°47'0 0.0
2016-Jan-31 23:32N 51°09' E 003°47'0 0.0
2016-Jan-31 22:32N 51°09' E 003°47'0 0.0
2016-Jan-31 21:20N 51°09' E 003°47'0 0.0
2016-Jan-31 20:32N 51°09' E 003°47'0 0.0
2016-Jan-31 19:32N 51°09' E 003°47'0 0.0
2016-Jan-31 18:32N 51°09' E 003°47'0 0.0
2016-Jan-31 17:26N 51°09' E 003°47'0 0.0
2016-Jan-31 16:32N 51°09' E 003°47'0 0.0
2016-Jan-31 15:32N 51°09' E 003°47'0 0.0
2016-Jan-31 14:32N 51°09' E 003°47'0 0.0
2016-Jan-31 13:26N 51°09' E 003°47'0 0.0
2016-Jan-31 12:32N 51°09' E 003°47'0 0.0
2016-Jan-31 11:32N 51°09' E 003°47'0 0.0
2016-Jan-31 10:32N 51°09' E 003°47'0 0.4
2016-Jan-31 09:34N 51°10' E 003°47'7 7.2
2016-Jan-31 08:34N 51°16' E 003°50'4 3.9
2016-Jan-31 07:34N 51°20' E 003°49'8 7.5
2016-Jan-31 06:34N 51°25' E 003°40'1111.3
2016-Jan-31 05:34N 51°24' E 003°22'1312.5
2016-Jan-31 04:33N 51°24' E 003°01'11 9.5
2016-Jan-31 03:22N 51°22' E 002°44'5 5.6
2016-Jan-31 02:33N 51°22' E 002°36'10 9.8
2016-Jan-31 01:33N 51°19' E 002°21'9 9.3
2016-Jan-31 00:32N 51°15' E 002°08'9 8.9
2016-Jan-30 23:33N 51°11' E 001°56'8 8.2
2016-Jan-30 22:33N 51°06' E 001°45'9 8.5
2016-Jan-30 21:33N 50°60' E 001°36'  
2016-Jan-28 08:11N 50°59' E 001°18'711.0
2016-Jan-28 07:33N 51°03' E 001°26'10 9.7
2016-Jan-28 06:33N 51°10' E 001°38'8 8.5
2016-Jan-28 05:33N 51°16' E 001°47'8 7.8
2016-Jan-28 04:33N 51°23' E 001°53'7 6.8
2016-Jan-28 03:30N 51°29' E 001°60'7 7.2
2016-Jan-28 02:29N 51°34' E 002°08'  

Dump ship's entire track history